createdAt,value
2018-07-04T00:04:56.887Z,99.90
2018-07-04T00:07:42.303Z,99.90
2018-07-04T00:10:27.795Z,99.90
2018-07-04T00:13:13.053Z,99.90
2018-07-04T00:15:58.501Z,99.90
2018-07-04T00:18:43.915Z,99.90
2018-07-04T00:21:29.345Z,99.90
2018-07-04T00:24:15.107Z,99.90
2018-07-04T00:27:00.609Z,99.90
2018-07-04T00:29:46.006Z,99.90
2018-07-04T00:32:31.288Z,99.90
2018-07-04T00:35:16.735Z,99.90
2018-07-04T00:38:02.164Z,99.90
2018-07-04T00:40:47.710Z,99.90
2018-07-04T00:43:33.013Z,99.90
2018-07-04T00:46:18.576Z,99.90
2018-07-04T00:49:03.971Z,99.90
2018-07-04T00:51:49.486Z,99.90
2018-07-04T00:54:34.901Z,99.90
2018-07-04T00:57:20.304Z,99.90
2018-07-04T01:00:05.727Z,99.90
2018-07-04T01:02:50.969Z,99.90
2018-07-04T01:05:36.459Z,99.90
2018-07-04T01:08:21.982Z,99.90
2018-07-04T01:11:07.461Z,99.90
2018-07-04T01:13:53.246Z,99.90
2018-07-04T01:16:38.744Z,99.90
2018-07-04T01:19:24.237Z,99.90
2018-07-04T01:22:09.498Z,99.90
2018-07-04T01:24:54.787Z,99.90
2018-07-04T01:27:40.163Z,99.90
2018-07-04T01:30:25.654Z,99.90
2018-07-04T01:33:10.901Z,99.90
2018-07-04T01:35:56.291Z,99.90
2018-07-04T01:38:41.745Z,99.90
2018-07-04T01:41:27.365Z,99.90
2018-07-04T01:44:12.748Z,99.90
2018-07-04T01:46:58.019Z,99.90
2018-07-04T01:49:43.429Z,99.90
2018-07-04T01:52:28.753Z,99.90
2018-07-04T01:57:53.742Z,99.90
2018-07-04T02:00:39.145Z,99.90
2018-07-04T02:03:24.770Z,99.90
2018-07-04T02:06:10.074Z,99.90
2018-07-04T02:08:55.457Z,99.90
2018-07-04T02:11:41.094Z,99.90
2018-07-04T02:14:26.309Z,99.90
2018-07-04T02:17:12.315Z,99.90
2018-07-04T02:22:37.153Z,99.90
2018-07-04T02:25:22.684Z,99.90
2018-07-04T02:28:08.017Z,99.90
2018-07-04T02:30:53.380Z,99.90
2018-07-04T02:33:38.825Z,99.90
2018-07-04T02:36:24.290Z,99.90
2018-07-04T02:41:49.823Z,99.90
2018-07-04T02:44:35.307Z,99.90
2018-07-04T02:47:26.909Z,99.90
2018-07-04T02:50:12.232Z,99.90
2018-07-04T02:52:57.538Z,99.90
2018-07-04T02:55:42.962Z,99.90
2018-07-04T02:58:28.358Z,99.90
2018-07-04T03:01:13.703Z,99.90
2018-07-04T03:03:59.116Z,99.90
2018-07-04T03:06:44.951Z,99.90
2018-07-04T03:09:30.174Z,99.90
2018-07-04T03:12:15.546Z,99.90
2018-07-04T03:15:00.899Z,99.90
2018-07-04T03:17:46.202Z,99.90
2018-07-04T03:23:11.246Z,99.90
2018-07-04T03:25:56.727Z,99.90
2018-07-04T03:28:42.200Z,99.90
2018-07-04T03:31:27.628Z,99.90
2018-07-04T03:34:12.840Z,99.90
2018-07-04T03:36:58.375Z,99.90
2018-07-04T03:39:43.801Z,99.90
2018-07-04T03:42:29.266Z,99.90
2018-07-04T03:45:14.672Z,99.90
2018-07-04T03:48:00.146Z,99.90
2018-07-04T03:50:45.315Z,99.90
2018-07-04T03:53:31.233Z,99.90
2018-07-04T03:56:16.776Z,99.90
2018-07-04T03:59:02.155Z,99.90
2018-07-04T04:01:47.477Z,99.90
2018-07-04T04:04:32.960Z,99.90
2018-07-04T04:07:18.459Z,99.90
2018-07-04T04:10:03.763Z,99.90
2018-07-04T04:12:49.046Z,99.90
2018-07-04T04:15:34.517Z,99.90
2018-07-04T04:18:19.842Z,99.90
2018-07-04T04:21:05.111Z,99.90
2018-07-04T04:23:50.602Z,99.90
2018-07-04T04:29:15.365Z,99.90
2018-07-04T04:32:00.855Z,99.90
2018-07-04T04:34:46.328Z,99.90
2018-07-04T04:37:31.642Z,99.90
2018-07-04T04:40:17.074Z,99.90
2018-07-04T04:43:02.121Z,99.90
2018-07-04T04:45:47.673Z,99.90
2018-07-04T04:48:33.158Z,99.90
2018-07-04T04:51:18.623Z,99.90
2018-07-04T04:54:04.205Z,99.90
2018-07-04T04:56:50.116Z,99.90
2018-07-04T04:59:35.484Z,99.90
2018-07-04T05:02:20.656Z,99.90
2018-07-04T05:05:06.025Z,99.90
2018-07-04T05:07:51.567Z,99.90
2018-07-04T05:10:36.838Z,99.90
2018-07-04T05:13:22.258Z,99.90
2018-07-04T05:16:07.577Z,99.90
2018-07-04T05:18:52.902Z,99.90
2018-07-04T05:21:38.553Z,99.90
2018-07-04T05:24:24.132Z,99.90
2018-07-04T05:27:09.544Z,99.90
2018-07-04T05:32:34.307Z,99.90
2018-07-04T05:35:19.683Z,99.90
2018-07-04T05:38:05.170Z,99.90
2018-07-04T05:40:50.510Z,99.90
2018-07-04T05:43:35.812Z,99.90
2018-07-04T05:46:21.262Z,99.90
2018-07-04T05:49:06.527Z,99.90
2018-07-04T05:54:31.522Z,99.90
2018-07-04T05:57:17.020Z,99.90
2018-07-04T06:00:02.472Z,99.90
2018-07-04T06:02:47.782Z,99.90
2018-07-04T06:08:25.072Z,99.90
2018-07-04T06:11:10.453Z,99.90
2018-07-04T06:13:55.932Z,99.90
2018-07-04T06:16:41.238Z,99.90
2018-07-04T06:19:26.976Z,99.90
2018-07-04T06:22:12.374Z,99.90
2018-07-04T06:24:57.872Z,99.90
2018-07-04T06:27:43.258Z,99.90
2018-07-04T06:30:28.599Z,99.90
2018-07-04T06:33:14.023Z,99.90
2018-07-04T06:35:59.392Z,99.90
2018-07-04T06:38:32.238Z,99.90
2018-07-04T06:40:58.816Z,99.90
2018-07-04T06:43:25.458Z,99.90
2018-07-04T06:50:46.294Z,99.90
2018-07-04T06:53:12.925Z,99.90
2018-07-04T07:00:33.661Z,99.90
2018-07-04T07:03:12.833Z,99.90
2018-07-04T07:05:58.209Z,99.90
2018-07-04T07:08:43.483Z,99.90
2018-07-04T07:11:28.761Z,99.90
2018-07-04T07:14:14.242Z,99.90
2018-07-04T07:16:59.418Z,99.90
2018-07-04T07:19:44.799Z,99.90
2018-07-04T07:22:30.272Z,99.90
2018-07-04T07:25:15.737Z,99.90
2018-07-04T07:28:01.360Z,99.90
2018-07-04T07:30:46.658Z,99.90
2018-07-04T07:33:31.987Z,99.90
2018-07-04T07:36:17.446Z,99.90
2018-07-04T07:39:03.355Z,99.90
2018-07-04T07:47:07.955Z,99.90
2018-07-04T07:49:53.588Z,99.90
2018-07-04T07:52:39.245Z,99.90
2018-07-04T07:55:24.667Z,99.90
2018-07-04T07:58:10.692Z,99.90
2018-07-04T08:03:35.236Z,99.90
2018-07-04T08:11:39.532Z,99.90
2018-07-04T08:14:25.100Z,99.90
2018-07-04T08:22:29.647Z,99.90
2018-07-04T08:25:14.986Z,99.90
2018-07-04T08:28:00.393Z,99.90
2018-07-04T08:30:45.730Z,99.90
2018-07-04T08:33:31.275Z,99.90
2018-07-04T08:36:16.779Z,99.90
2018-07-04T08:41:41.550Z,99.90
2018-07-04T08:44:26.964Z,99.90
2018-07-04T08:47:12.475Z,99.90
2018-07-04T08:49:57.816Z,99.90
2018-07-04T08:52:43.395Z,99.90
2018-07-04T08:55:28.708Z,99.90
2018-07-04T08:58:14.096Z,99.90
2018-07-04T09:00:59.440Z,99.90
2018-07-04T09:03:44.948Z,99.90
2018-07-04T09:06:30.164Z,99.90
2018-07-04T09:09:15.601Z,99.90
2018-07-04T09:12:01.092Z,99.90
2018-07-04T09:14:46.474Z,99.90
2018-07-04T09:17:31.951Z,99.20
2018-07-04T09:20:17.230Z,97.50
2018-07-04T09:23:02.689Z,98.50
2018-07-04T09:25:48.095Z,97.90
2018-07-04T09:28:33.533Z,97.80
2018-07-04T09:31:18.810Z,96.00
2018-07-04T09:34:04.267Z,96.70
2018-07-04T09:36:49.810Z,95.40
2018-07-04T09:42:14.775Z,95.80
2018-07-04T09:45:01.182Z,95.30
2018-07-04T09:47:46.604Z,93.90
2018-07-04T09:50:32.119Z,93.00
2018-07-04T09:53:17.513Z,93.50
2018-07-04T09:56:02.806Z,90.90
2018-07-04T09:58:48.361Z,91.90
2018-07-04T10:01:33.774Z,90.50
2018-07-04T10:04:19.142Z,90.70
2018-07-04T10:07:04.603Z,90.10
2018-07-04T10:09:49.903Z,91.00
2018-07-04T10:12:35.465Z,89.10
2018-07-04T10:15:20.809Z,88.10
2018-07-04T10:18:06.309Z,89.60
2018-07-04T10:20:51.676Z,90.00
2018-07-04T10:23:37.119Z,90.90
2018-07-04T10:26:22.526Z,90.70
2018-07-04T10:29:07.650Z,90.30
2018-07-04T10:31:52.991Z,90.00
2018-07-04T10:34:38.583Z,89.80
2018-07-04T10:37:23.713Z,90.20
2018-07-04T10:40:12.274Z,90.20
2018-07-04T10:42:57.557Z,90.70
2018-07-04T10:45:42.825Z,90.90
2018-07-04T10:48:31.426Z,91.40
2018-07-04T10:51:16.858Z,91.50
2018-07-04T10:54:02.387Z,91.00
2018-07-04T10:56:47.926Z,90.40
2018-07-04T10:59:33.300Z,91.00
2018-07-04T11:02:18.788Z,90.10
2018-07-04T11:07:43.436Z,90.80
2018-07-04T11:10:28.961Z,90.70
2018-07-04T11:13:14.440Z,90.90
2018-07-04T11:15:59.783Z,90.20
2018-07-04T11:18:45.423Z,90.10
2018-07-04T11:21:30.831Z,90.10
2018-07-04T11:24:16.121Z,90.60
2018-07-04T11:27:01.546Z,90.90
2018-07-04T11:29:47.129Z,89.50
2018-07-04T11:32:32.602Z,89.80
2018-07-04T11:35:18.002Z,90.30
2018-07-04T11:38:03.247Z,90.10
2018-07-04T11:40:48.848Z,90.20
2018-07-04T11:43:34.050Z,90.00
2018-07-04T11:46:06.990Z,90.90
2018-07-04T11:48:33.569Z,90.10
2018-07-04T11:51:00.190Z,89.40
2018-07-04T11:53:26.788Z,88.70
2018-07-04T11:55:53.410Z,88.40
2018-07-04T11:58:20.135Z,89.20
2018-07-04T12:00:46.746Z,85.40
2018-07-04T12:03:14.354Z,85.80
2018-07-04T12:08:20.716Z,86.10
2018-07-04T12:10:47.808Z,86.50
2018-07-04T12:13:14.701Z,87.10
2018-07-04T12:15:41.273Z,85.00
2018-07-04T12:18:07.907Z,81.80
2018-07-04T12:20:34.490Z,77.90
2018-07-04T12:23:01.127Z,78.30
2018-07-04T12:25:27.727Z,79.70
2018-07-04T12:27:54.581Z,80.60
2018-07-04T12:30:21.509Z,80.00
2018-07-04T12:32:48.128Z,79.70
2018-07-04T12:35:14.727Z,79.80
2018-07-04T12:37:41.387Z,80.60
2018-07-04T12:40:07.973Z,81.10
2018-07-04T12:42:34.594Z,77.30
2018-07-04T12:45:01.848Z,73.70
2018-07-04T12:47:28.746Z,71.60
2018-07-04T12:49:55.287Z,73.50
2018-07-04T12:52:21.898Z,75.20
2018-07-04T12:54:52.691Z,75.80
2018-07-04T13:00:17.804Z,75.30
2018-07-04T13:05:43.956Z,74.60
2018-07-04T13:08:29.218Z,74.50
2018-07-04T13:11:14.673Z,73.60
2018-07-04T13:14:00.187Z,75.20
2018-07-04T13:16:45.470Z,73.80
2018-07-04T13:19:30.753Z,72.70
2018-07-04T13:22:16.108Z,70.60
2018-07-04T13:25:01.512Z,69.80
2018-07-04T13:27:46.850Z,69.20
2018-07-04T13:33:11.781Z,66.80
2018-07-04T13:38:36.683Z,70.90
2018-07-04T13:41:22.174Z,64.50
2018-07-04T13:46:47.137Z,62.30
2018-07-04T13:49:32.906Z,61.90
2018-07-04T13:52:18.151Z,61.70
2018-07-04T13:55:03.475Z,60.80
2018-07-04T13:57:48.992Z,60.00
2018-07-04T14:00:34.490Z,60.70
2018-07-04T14:03:19.882Z,55.70
2018-07-04T14:06:05.086Z,55.40
2018-07-04T14:08:50.520Z,54.20
2018-07-04T14:11:35.893Z,54.30
2018-07-04T14:14:21.364Z,54.80
2018-07-04T14:17:06.589Z,54.20
2018-07-04T14:19:52.078Z,55.90
2018-07-04T14:22:37.580Z,55.50
2018-07-04T14:25:22.926Z,57.00
2018-07-04T14:28:08.578Z,58.20
2018-07-04T14:30:54.315Z,56.00
2018-07-04T14:33:39.821Z,55.50
2018-07-04T14:36:25.171Z,53.60
2018-07-04T14:39:10.487Z,51.40
2018-07-04T14:41:56.022Z,50.50
2018-07-04T14:44:41.461Z,50.50
2018-07-04T14:47:26.763Z,50.00
2018-07-04T14:50:11.870Z,52.30
2018-07-04T14:52:57.007Z,53.00
2018-07-04T14:55:42.603Z,52.60
2018-07-04T14:58:28.046Z,52.00
2018-07-04T15:01:13.686Z,51.90
2018-07-04T15:03:59.326Z,51.00
2018-07-04T15:06:44.713Z,51.90
2018-07-04T15:09:30.109Z,50.80
2018-07-04T15:12:15.251Z,51.10
2018-07-04T15:15:00.702Z,51.30
2018-07-04T15:17:46.100Z,48.60
2018-07-04T15:25:51.007Z,45.80
2018-07-04T15:28:36.349Z,44.00
2018-07-04T15:31:21.812Z,43.90
2018-07-04T15:34:07.225Z,41.80
2018-07-04T15:36:52.602Z,40.80
2018-07-04T15:39:38.220Z,41.40
2018-07-04T15:42:23.587Z,40.80
2018-07-04T15:45:08.988Z,39.70
2018-07-04T15:47:54.391Z,40.30
2018-07-04T15:50:39.737Z,40.70
2018-07-04T15:53:25.088Z,40.70
2018-07-04T15:56:10.315Z,39.50
2018-07-04T15:58:55.693Z,39.50
2018-07-04T16:01:41.002Z,39.50
2018-07-04T16:04:26.393Z,38.20
2018-07-04T16:07:11.725Z,36.30
2018-07-04T16:09:57.089Z,36.90
2018-07-04T16:12:42.471Z,38.30
2018-07-04T16:15:27.614Z,37.90
2018-07-04T16:18:12.974Z,37.10
2018-07-04T16:20:58.191Z,37.00
2018-07-04T16:23:43.825Z,38.00
2018-07-04T16:26:29.253Z,37.50
2018-07-04T16:29:14.697Z,38.40
2018-07-04T16:32:00.401Z,38.50
2018-07-04T16:34:45.794Z,37.20
2018-07-04T16:37:31.304Z,37.80
2018-07-04T16:40:16.792Z,37.30
2018-07-04T16:45:41.663Z,37.40
2018-07-04T16:48:27.228Z,36.70
2018-07-04T16:51:12.568Z,37.90
2018-07-04T16:53:57.919Z,37.30
2018-07-04T16:56:43.542Z,37.70
2018-07-04T16:59:28.850Z,37.30
2018-07-04T17:02:14.174Z,37.20
2018-07-04T17:04:59.499Z,36.00
2018-07-04T17:07:45.030Z,36.10
2018-07-04T17:10:30.788Z,37.20
2018-07-04T17:13:16.138Z,35.60
2018-07-04T17:16:01.578Z,36.30
2018-07-04T17:18:47.167Z,36.10
2018-07-04T17:21:32.597Z,36.00
2018-07-04T17:24:18.003Z,36.40
2018-07-04T17:27:03.398Z,36.90
2018-07-04T17:29:48.836Z,35.70
2018-07-04T17:32:34.444Z,35.90
2018-07-04T17:37:59.518Z,37.00
2018-07-04T17:40:44.734Z,48.10
2018-07-04T17:43:30.115Z,49.40
2018-07-04T17:46:16.020Z,49.60
2018-07-04T17:49:01.496Z,50.10
2018-07-04T17:51:46.656Z,50.10
2018-07-04T17:54:32.032Z,51.10
2018-07-04T17:57:17.601Z,52.50
2018-07-04T18:00:03.057Z,52.60
2018-07-04T18:02:48.394Z,53.70
2018-07-04T18:05:33.707Z,54.10
2018-07-04T18:08:19.123Z,54.20
2018-07-04T18:13:43.929Z,54.80
2018-07-04T18:16:29.472Z,55.10
2018-07-04T18:19:14.661Z,56.40
2018-07-04T18:22:00.136Z,58.30
2018-07-04T18:24:45.536Z,59.90
2018-07-04T18:27:30.911Z,60.70
2018-07-04T18:30:16.387Z,61.30
2018-07-04T18:33:01.673Z,61.90
2018-07-04T18:35:46.791Z,63.90
2018-07-04T18:38:32.210Z,64.80
2018-07-04T18:41:17.707Z,65.00
2018-07-04T18:44:02.909Z,64.80
2018-07-04T18:46:48.376Z,64.40
2018-07-04T18:49:33.830Z,64.70
2018-07-04T18:52:19.294Z,64.80
2018-07-04T18:55:04.778Z,65.30
2018-07-04T18:57:50.200Z,65.60
2018-07-04T19:03:16.444Z,67.30
2018-07-04T19:06:01.430Z,68.20
2018-07-04T19:08:46.955Z,69.00
2018-07-04T19:11:32.477Z,69.60
2018-07-04T19:14:17.754Z,70.80
2018-07-04T19:19:43.766Z,73.60
2018-07-04T19:22:29.269Z,75.10
2018-07-04T19:25:14.711Z,77.70
2018-07-04T19:27:59.814Z,79.40
2018-07-04T19:30:45.493Z,80.80
2018-07-04T19:33:30.601Z,82.80
2018-07-04T19:36:16.841Z,84.60
2018-07-04T19:39:02.047Z,86.70
2018-07-04T19:41:47.920Z,88.80
2018-07-04T19:47:12.601Z,91.90
2018-07-04T19:49:57.956Z,92.70
2018-07-04T19:52:43.341Z,93.50
2018-07-04T19:55:28.668Z,94.70
2018-07-04T19:58:14.010Z,97.20
2018-07-04T20:00:59.544Z,99.50
2018-07-04T20:06:24.333Z,99.90
2018-07-04T20:09:09.678Z,99.90
2018-07-04T20:11:55.367Z,99.90
2018-07-04T20:17:19.971Z,99.90
2018-07-04T20:20:05.970Z,99.90
2018-07-04T20:22:51.375Z,99.90
2018-07-04T20:25:37.135Z,99.90
2018-07-04T20:28:22.650Z,99.90
2018-07-04T20:31:08.004Z,99.90
2018-07-04T20:33:54.249Z,99.90
2018-07-04T20:36:39.625Z,99.90
2018-07-04T20:39:24.869Z,99.90
2018-07-04T20:42:10.414Z,99.90
2018-07-04T20:44:55.814Z,99.90
2018-07-04T20:47:41.254Z,99.90
2018-07-04T20:50:26.385Z,99.90
2018-07-04T20:53:11.905Z,99.90
2018-07-04T20:55:57.333Z,99.90
2018-07-04T20:58:43.083Z,99.90
2018-07-04T21:01:28.433Z,99.90
2018-07-04T21:04:13.918Z,99.90
2018-07-04T21:06:59.280Z,99.90
2018-07-04T21:09:44.671Z,99.90
2018-07-04T21:12:30.050Z,99.90
2018-07-04T21:15:15.515Z,99.90
2018-07-04T21:18:00.928Z,99.90
2018-07-04T21:20:46.570Z,99.90
2018-07-04T21:23:31.862Z,99.90
2018-07-04T21:26:17.250Z,99.90
2018-07-04T21:29:02.627Z,99.90
2018-07-04T21:31:47.838Z,99.90
2018-07-04T21:34:33.508Z,99.90
2018-07-04T21:37:18.950Z,99.90
2018-07-04T21:42:44.081Z,99.90
2018-07-04T21:45:29.766Z,99.90
2018-07-04T21:48:15.140Z,99.90
2018-07-04T21:51:00.513Z,99.90
2018-07-04T21:53:46.410Z,99.90
2018-07-04T21:59:11.198Z,99.90
2018-07-04T22:01:56.686Z,99.90
2018-07-04T22:04:42.180Z,99.90
2018-07-04T22:07:27.617Z,99.90
2018-07-04T22:10:13.038Z,99.90
2018-07-04T22:12:58.452Z,99.90
2018-07-04T22:15:43.876Z,99.90
2018-07-04T22:18:29.139Z,99.90
2018-07-04T22:23:54.013Z,99.90
2018-07-04T22:26:39.539Z,99.90
2018-07-04T22:29:25.009Z,99.90
2018-07-04T22:37:30.761Z,99.90
2018-07-04T22:40:16.196Z,99.90
2018-07-04T22:43:01.564Z,99.90
2018-07-04T22:45:46.954Z,99.90
2018-07-04T22:48:32.285Z,99.90
2018-07-04T22:51:17.747Z,99.90
2018-07-04T22:56:42.650Z,99.90
2018-07-04T22:59:28.058Z,99.90
2018-07-04T23:02:13.319Z,99.90
2018-07-04T23:04:58.540Z,99.90
2018-07-04T23:07:43.866Z,99.90
2018-07-04T23:10:29.287Z,99.90
2018-07-04T23:13:14.761Z,99.90
2018-07-04T23:18:39.827Z,99.90
2018-07-04T23:21:25.074Z,99.90
2018-07-04T23:24:10.206Z,99.90
2018-07-04T23:26:55.509Z,99.90
2018-07-04T23:29:40.789Z,99.90
2018-07-04T23:32:26.123Z,99.90
2018-07-04T23:35:11.636Z,99.90
2018-07-04T23:37:57.171Z,99.90
2018-07-04T23:40:42.620Z,99.90
2018-07-04T23:43:27.984Z,99.90
2018-07-04T23:46:13.404Z,99.90
2018-07-04T23:51:38.166Z,99.90
2018-07-04T23:54:23.479Z,99.90
2018-07-04T23:59:48.435Z,99.90
